Aviation Digital Data Service (ADDS)

Output produced by METARs form (1908 UTC 18 April 2019)
found at http://www.aviationweather.gov/metar/data/
 
METAR text: BIEG 181900Z 12010KT 9999 FEW048 SCT110 12/04 Q1011
Conditions at: BIEG (EGILSSTADIR , IS) observed 1900 UTC 18 April 2019
Temperature: 12.0°C (54°F)
Dewpoint: 4.0°C (39°F) [RH = 58%]
Pressure (altimeter): 29.85 inches Hg (1011.0 mb)
Winds: from the ESE (120 degrees) at 12 MPH (10 knots; 5.1 m/s)
Visibility: 6 or more miles (10+ km)
Ceiling: at least 12,000 feet AGL
Clouds: few clouds at 4800 feet AGL
scattered clouds at 11000 feet AGL
Weather: no significant weather observed at this time

METAR text: BIEG 181800Z 23014KT CAVOK 11/03 Q1010
Conditions at: BIEG (EGILSSTADIR , IS) observed 1800 UTC 18 April 2019
Temperature: 11.0°C (52°F)
Dewpoint: 3.0°C (37°F) [RH = 58%]
Pressure (altimeter): 29.82 inches Hg (1010.0 mb)
Winds: from the SW (230 degrees) at 16 MPH (14 knots; 7.2 m/s)
Visibility: 6 or more miles (10+ km)
Ceiling: ceiling and visibility are OK
Clouds: unknown
Weather: no significant weather observed at this time

METAR text: BIEG 181700Z 21017KT CAVOK 14/02 Q1010
Conditions at: BIEG (EGILSSTADIR , IS) observed 1700 UTC 18 April 2019
Temperature: 14.0°C (57°F)
Dewpoint: 2.0°C (36°F) [RH = 44%]
Pressure (altimeter): 29.82 inches Hg (1010.0 mb)
Winds: from the SSW (210 degrees) at 20 MPH (17 knots; 8.7 m/s)
Visibility: 6 or more miles (10+ km)
Ceiling: ceiling and visibility are OK
Clouds: unknown
Weather: no significant weather observed at this time

METAR text: BIEG 181600Z 20020KT CAVOK 14/01 Q1010
Conditions at: BIEG (EGILSSTADIR , IS) observed 1600 UTC 18 April 2019
Temperature: 14.0°C (57°F)
Dewpoint: 1.0°C (34°F) [RH = 41%]
Pressure (altimeter): 29.82 inches Hg (1010.0 mb)
Winds: from the SSW (200 degrees) at 23 MPH (20 knots; 10.3 m/s)
Visibility: 6 or more miles (10+ km)
Ceiling: ceiling and visibility are OK
Clouds: unknown
Weather: no significant weather observed at this time

METAR text: BIEG 181500Z 21022KT CAVOK 14/00 Q1009
Conditions at: BIEG (EGILSSTADIR , IS) observed 1500 UTC 18 April 2019
Temperature: 14.0°C (57°F)
Dewpoint: 0.0°C (32°F) [RH = 38%]
Pressure (altimeter): 29.79 inches Hg (1009.0 mb)
Winds: from the SSW (210 degrees) at 25 MPH (22 knots; 11.3 m/s)
Visibility: 6 or more miles (10+ km)
Ceiling: ceiling and visibility are OK
Clouds: unknown
Weather: no significant weather observed at this time

METAR text: BIEG 181400Z 21022KT CAVOK 14/M01 Q1009
Conditions at: BIEG (EGILSSTADIR , IS) observed 1400 UTC 18 April 2019
Temperature: 14.0°C (57°F)
Dewpoint: -1.0°C (30°F) [RH = 36%]
Pressure (altimeter): 29.79 inches Hg (1009.0 mb)
Winds: from the SSW (210 degrees) at 25 MPH (22 knots; 11.3 m/s)
Visibility: 6 or more miles (10+ km)
Ceiling: ceiling and visibility are OK
Clouds: unknown
Weather: no significant weather observed at this time

METAR text: BIEG 181300Z 21022KT CAVOK 13/01 Q1008
Conditions at: BIEG (EGILSSTADIR , IS) observed 1300 UTC 18 April 2019
Temperature: 13.0°C (55°F)
Dewpoint: 1.0°C (34°F) [RH = 44%]
Pressure (altimeter): 29.76 inches Hg (1008.0 mb)
Winds: from the SSW (210 degrees) at 25 MPH (22 knots; 11.3 m/s)
Visibility: 6 or more miles (10+ km)
Ceiling: ceiling and visibility are OK
Clouds: unknown
Weather: no significant weather observed at this time

METAR text: BIEG 181200Z 21025KT CAVOK 13/01 Q1008
Conditions at: BIEG (EGILSSTADIR , IS) observed 1200 UTC 18 April 2019
Temperature: 13.0°C (55°F)
Dewpoint: 1.0°C (34°F) [RH = 44%]
Pressure (altimeter): 29.76 inches Hg (1008.0 mb)
Winds: from the SSW (210 degrees) at 29 MPH (25 knots; 12.9 m/s)
Visibility: 6 or more miles (10+ km)
Ceiling: ceiling and visibility are OK
Clouds: unknown
Weather: no significant weather observed at this time

METAR text: BIEG 181100Z 21018KT 9999 FEW054 14/02 Q1008
Conditions at: BIEG (EGILSSTADIR , IS) observed 1100 UTC 18 April 2019
Temperature: 14.0°C (57°F)
Dewpoint: 2.0°C (36°F) [RH = 44%]
Pressure (altimeter): 29.76 inches Hg (1008.0 mb)
Winds: from the SSW (210 degrees) at 21 MPH (18 knots; 9.3 m/s)
Visibility: 6 or more miles (10+ km)
Ceiling: at least 12,000 feet AGL
Clouds: few clouds at 5400 feet AGL
Weather: no significant weather observed at this time

METAR text: BIEG 181000Z 22019KT 9999 FEW054 12/04 Q1007
Conditions at: BIEG (EGILSSTADIR , IS) observed 1000 UTC 18 April 2019
Temperature: 12.0°C (54°F)
Dewpoint: 4.0°C (39°F) [RH = 58%]
Pressure (altimeter): 29.73 inches Hg (1007.0 mb)
Winds: from the SW (220 degrees) at 22 MPH (19 knots; 9.8 m/s)
Visibility: 6 or more miles (10+ km)
Ceiling: at least 12,000 feet AGL
Clouds: few clouds at 5400 feet AGL
Weather: no significant weather observed at this time

METAR text: BIEG 180900Z 19015KT 9999 FEW046 11/05 Q1006
Conditions at: BIEG (EGILSSTADIR , IS) observed 0900 UTC 18 April 2019
Temperature: 11.0°C (52°F)
Dewpoint: 5.0°C (41°F) [RH = 66%]
Pressure (altimeter): 29.70 inches Hg (1006.0 mb)
Winds: from the S (190 degrees) at 17 MPH (15 knots; 7.7 m/s)
Visibility: 6 or more miles (10+ km)
Ceiling: at least 12,000 feet AGL
Clouds: few clouds at 4600 feet AGL
Weather: no significant weather observed at this time

METAR text: BIEG 180800Z 19006G24KT 9999 FEW030 SCT038 12/06 Q1006
Conditions at: BIEG (EGILSSTADIR , IS) observed 0800 UTC 18 April 2019
Temperature: 12.0°C (54°F)
Dewpoint: 6.0°C (43°F) [RH = 67%]
Pressure (altimeter): 29.70 inches Hg (1006.0 mb)
Winds: from the S (190 degrees) at 7 MPH (6 knots; 3.1 m/s)
gusting to 28 MPH (24 knots; 12.3 m/s)
Visibility: 6 or more miles (10+ km)
Ceiling: at least 12,000 feet AGL
Clouds: few clouds at 3000 feet AGL
scattered clouds at 3800 feet AGL
Weather: no significant weather observed at this time

METAR text: BIEG 180700Z 19010G26KT 9999 FEW030 SCT040 BKN068 11/05 Q1006
Conditions at: BIEG (EGILSSTADIR , IS) observed 0700 UTC 18 April 2019
Temperature: 11.0°C (52°F)
Dewpoint: 5.0°C (41°F) [RH = 66%]
Pressure (altimeter): 29.70 inches Hg (1006.0 mb)
Winds: from the S (190 degrees) at 12 MPH (10 knots; 5.1 m/s)
gusting to 30 MPH (26 knots; 13.4 m/s)
Visibility: 6 or more miles (10+ km)
Ceiling: 6800 feet AGL
Clouds: few clouds at 3000 feet AGL
scattered clouds at 4000 feet AGL
broken clouds at 6800 feet AGL
Weather: no significant weather observed at this time

METAR text: BIEG 180600Z 19008G23KT 9999 SCT036 BKN052 11/05 Q1006
Conditions at: BIEG (EGILSSTADIR , IS) observed 0600 UTC 18 April 2019
Temperature: 11.0°C (52°F)
Dewpoint: 5.0°C (41°F) [RH = 66%]
Pressure (altimeter): 29.70 inches Hg (1006.0 mb)
Winds: from the S (190 degrees) at 9 MPH (8 knots; 4.1 m/s)
gusting to 26 MPH (23 knots; 11.8 m/s)
Visibility: 6 or more miles (10+ km)
Ceiling: 5200 feet AGL
Clouds: scattered clouds at 3600 feet AGL
broken clouds at 5200 feet AGL
Weather: no significant weather observed at this time

METAR text: BIEG 180500Z 17011G28KT 9999 VCSH FEW030 SCT040 BKN052 09/05 Q1005
Conditions at: BIEG (EGILSSTADIR , IS) observed 0500 UTC 18 April 2019
Temperature: 9.0°C (48°F)
Dewpoint: 5.0°C (41°F) [RH = 76%]
Pressure (altimeter): 29.68 inches Hg (1005.0 mb)
Winds: from the S (170 degrees) at 13 MPH (11 knots; 5.7 m/s)
gusting to 32 MPH (28 knots; 14.4 m/s)
Visibility: 6 or more miles (10+ km)
Ceiling: 5200 feet AGL
Clouds: few clouds at 3000 feet AGL
scattered clouds at 4000 feet AGL
broken clouds at 5200 feet AGL
Weather: VCSH  (showers in vicinity)

METAR text: BIEG 180400Z 16017G34KT 9999 VCSH FEW030 SCT044 OVC085 10/05 Q1006
Conditions at: BIEG (EGILSSTADIR , IS) observed 0400 UTC 18 April 2019
Temperature: 10.0°C (50°F)
Dewpoint: 5.0°C (41°F) [RH = 71%]
Pressure (altimeter): 29.70 inches Hg (1006.0 mb)
Winds: from the SSE (160 degrees) at 20 MPH (17 knots; 8.7 m/s)
gusting to 39 MPH (34 knots; 17.5 m/s)
Visibility: 6 or more miles (10+ km)
Ceiling: 8500 feet AGL
Clouds: few clouds at 3000 feet AGL
scattered clouds at 4400 feet AGL
overcast cloud deck at 8500 feet AGL
Weather: VCSH  (showers in vicinity)

METAR text: BIEG 180300Z 16015G31KT 9999 VCSH FEW030 SCT054 OVC085 10/04 Q1006
Conditions at: BIEG (EGILSSTADIR , IS) observed 0300 UTC 18 April 2019
Temperature: 10.0°C (50°F)
Dewpoint: 4.0°C (39°F) [RH = 66%]
Pressure (altimeter): 29.70 inches Hg (1006.0 mb)
Winds: from the SSE (160 degrees) at 17 MPH (15 knots; 7.7 m/s)
gusting to 36 MPH (31 knots; 15.9 m/s)
Visibility: 6 or more miles (10+ km)
Ceiling: 8500 feet AGL
Clouds: few clouds at 3000 feet AGL
scattered clouds at 5400 feet AGL
overcast cloud deck at 8500 feet AGL
Weather: VCSH  (showers in vicinity)

METAR text: BIEG 180200Z 16013G33KT 9999 VCSH FEW030 SCT060 OVC120 09/04 Q1007
Conditions at: BIEG (EGILSSTADIR , IS) observed 0200 UTC 18 April 2019
Temperature: 9.0°C (48°F)
Dewpoint: 4.0°C (39°F) [RH = 71%]
Pressure (altimeter): 29.73 inches Hg (1007.0 mb)
Winds: from the SSE (160 degrees) at 15 MPH (13 knots; 6.7 m/s)
gusting to 38 MPH (33 knots; 17.0 m/s)
Visibility: 6 or more miles (10+ km)
Ceiling: 12000 feet AGL
Clouds: few clouds at 3000 feet AGL
scattered clouds at 6000 feet AGL
overcast cloud deck at 12000 feet AGL
Weather: VCSH  (showers in vicinity)

METAR text: BIEG 180100Z 15009G28KT 9999 -DZ FEW029 SCT058 OVC120 09/04 Q1009
Conditions at: BIEG (EGILSSTADIR , IS) observed 0100 UTC 18 April 2019
Temperature: 9.0°C (48°F)
Dewpoint: 4.0°C (39°F) [RH = 71%]
Pressure (altimeter): 29.79 inches Hg (1009.0 mb)
Winds: from the SSE (150 degrees) at 10 MPH (9 knots; 4.6 m/s)
gusting to 32 MPH (28 knots; 14.4 m/s)
Visibility: 6 or more miles (10+ km)
Ceiling: 12000 feet AGL
Clouds: few clouds at 2900 feet AGL
scattered clouds at 5800 feet AGL
overcast cloud deck at 12000 feet AGL
Weather: -DZ  (light drizzle)

METAR text: BIEG 180000Z 22008G21KT 9999 VCSH FEW035 SCT063 OVC120 09/03 Q1010
Conditions at: BIEG (EGILSSTADIR , IS) observed 0000 UTC 18 April 2019
Temperature: 9.0°C (48°F)
Dewpoint: 3.0°C (37°F) [RH = 66%]
Pressure (altimeter): 29.82 inches Hg (1010.0 mb)
Winds: from the SW (220 degrees) at 9 MPH (8 knots; 4.1 m/s)
gusting to 24 MPH (21 knots; 10.8 m/s)
Visibility: 6 or more miles (10+ km)
Ceiling: 12000 feet AGL
Clouds: few clouds at 3500 feet AGL
scattered clouds at 6300 feet AGL
overcast cloud deck at 12000 feet AGL
Weather: VCSH  (showers in vicinity)

METAR text: BIEG 172300Z 17010G26KT 9999 VCSH FEW020 SCT066 OVC120 09/03 Q1010
Conditions at: BIEG (EGILSSTADIR , IS) observed 2300 UTC 17 April 2019
Temperature: 9.0°C (48°F)
Dewpoint: 3.0°C (37°F) [RH = 66%]
Pressure (altimeter): 29.82 inches Hg (1010.0 mb)
Winds: from the S (170 degrees) at 12 MPH (10 knots; 5.1 m/s)
gusting to 30 MPH (26 knots; 13.4 m/s)
Visibility: 6 or more miles (10+ km)
Ceiling: 12000 feet AGL
Clouds: few clouds at 2000 feet AGL
scattered clouds at 6600 feet AGL
overcast cloud deck at 12000 feet AGL
Weather: VCSH  (showers in vicinity)

METAR text: BIEG 172200Z 18008G24KT 9999 VCSH FEW020 BKN045 OVC072 09/03 Q1012
Conditions at: BIEG (EGILSSTADIR , IS) observed 2200 UTC 17 April 2019
Temperature: 9.0°C (48°F)
Dewpoint: 3.0°C (37°F) [RH = 66%]
Pressure (altimeter): 29.88 inches Hg (1012.0 mb)
Winds: from the S (180 degrees) at 9 MPH (8 knots; 4.1 m/s)
gusting to 28 MPH (24 knots; 12.3 m/s)
Visibility: 6 or more miles (10+ km)
Ceiling: 4500 feet AGL
Clouds: few clouds at 2000 feet AGL
broken clouds at 4500 feet AGL
overcast cloud deck at 7200 feet AGL
Weather: VCSH  (showers in vicinity)

METAR text: BIEG 172100Z 15003G22KT 9999 VCSH FEW020 BKN045 OVC075 09/03 Q1012
Conditions at: BIEG (EGILSSTADIR , IS) observed 2100 UTC 17 April 2019
Temperature: 9.0°C (48°F)
Dewpoint: 3.0°C (37°F) [RH = 66%]
Pressure (altimeter): 29.88 inches Hg (1012.0 mb)
Winds: from the SSE (150 degrees) at 3 MPH (3 knots; 1.5 m/s)
gusting to 25 MPH (22 knots; 11.3 m/s)
Visibility: 6 or more miles (10+ km)
Ceiling: 4500 feet AGL
Clouds: few clouds at 2000 feet AGL
broken clouds at 4500 feet AGL
overcast cloud deck at 7500 feet AGL
Weather: VCSH  (showers in vicinity)

METAR text: BIEG 172000Z 19010KT 9999 VCSH FEW020 BKN045 OVC085 09/04 Q1014
Conditions at: BIEG (EGILSSTADIR , IS) observed 2000 UTC 17 April 2019
Temperature: 9.0°C (48°F)
Dewpoint: 4.0°C (39°F) [RH = 71%]
Pressure (altimeter): 29.94 inches Hg (1014.0 mb)
Winds: from the S (190 degrees) at 12 MPH (10 knots; 5.1 m/s)
Visibility: 6 or more miles (10+ km)
Ceiling: 4500 feet AGL
Clouds: few clouds at 2000 feet AGL
broken clouds at 4500 feet AGL
overcast cloud deck at 8500 feet AGL
Weather: VCSH  (showers in vicinity)

METAR text: BIEG 171900Z 16013KT 9999 FEW025 BKN045 OVC093 09/03 Q1014
Conditions at: BIEG (EGILSSTADIR , IS) observed 1900 UTC 17 April 2019
Temperature: 9.0°C (48°F)
Dewpoint: 3.0°C (37°F) [RH = 66%]
Pressure (altimeter): 29.94 inches Hg (1014.0 mb)
Winds: from the SSE (160 degrees) at 15 MPH (13 knots; 6.7 m/s)
Visibility: 6 or more miles (10+ km)
Ceiling: 4500 feet AGL
Clouds: few clouds at 2500 feet AGL
broken clouds at 4500 feet AGL
overcast cloud deck at 9300 feet AGL
Weather: no significant weather observed at this time

METAR text: BIEG 171800Z 15011KT 9999 FEW020 BKN044 BKN058 09/03 Q1014
Conditions at: BIEG (EGILSSTADIR , IS) observed 1800 UTC 17 April 2019
Temperature: 9.0°C (48°F)
Dewpoint: 3.0°C (37°F) [RH = 66%]
Pressure (altimeter): 29.94 inches Hg (1014.0 mb)
Winds: from the SSE (150 degrees) at 13 MPH (11 knots; 5.7 m/s)
Visibility: 6 or more miles (10+ km)
Ceiling: 4400 feet AGL
Clouds: few clouds at 2000 feet AGL
broken clouds at 4400 feet AGL
broken clouds at 5800 feet AGL
Weather: no significant weather observed at this time

METAR text: BIEG 171700Z 18016KT 9999 FEW020 BKN042 09/04 Q1015
Conditions at: BIEG (EGILSSTADIR , IS) observed 1700 UTC 17 April 2019
Temperature: 9.0°C (48°F)
Dewpoint: 4.0°C (39°F) [RH = 71%]
Pressure (altimeter): 29.97 inches Hg (1015.0 mb)
Winds: from the S (180 degrees) at 18 MPH (16 knots; 8.2 m/s)
Visibility: 6 or more miles (10+ km)
Ceiling: 4200 feet AGL
Clouds: few clouds at 2000 feet AGL
broken clouds at 4200 feet AGL
Weather: no significant weather observed at this time

METAR text: BIEG 171600Z 17009KT 9999 FEW025 BKN050 10/04 Q1015
Conditions at: BIEG (EGILSSTADIR , IS) observed 1600 UTC 17 April 2019
Temperature: 10.0°C (50°F)
Dewpoint: 4.0°C (39°F) [RH = 66%]
Pressure (altimeter): 29.97 inches Hg (1015.0 mb)
Winds: from the S (170 degrees) at 10 MPH (9 knots; 4.6 m/s)
Visibility: 6 or more miles (10+ km)
Ceiling: 5000 feet AGL
Clouds: few clouds at 2500 feet AGL
broken clouds at 5000 feet AGL
Weather: no significant weather observed at this time

METAR text: BIEG 171500Z 18006KT 9999 FEW030 BKN050 BKN100 10/04 Q1016
Conditions at: BIEG (EGILSSTADIR , IS) observed 1500 UTC 17 April 2019
Temperature: 10.0°C (50°F)
Dewpoint: 4.0°C (39°F) [RH = 66%]
Pressure (altimeter): 30.00 inches Hg (1016.0 mb)
Winds: from the S (180 degrees) at 7 MPH (6 knots; 3.1 m/s)
Visibility: 6 or more miles (10+ km)
Ceiling: 5000 feet AGL
Clouds: few clouds at 3000 feet AGL
broken clouds at 5000 feet AGL
broken clouds at 10000 feet AGL
Weather: no significant weather observed at this time

METAR text: BIEG 171400Z 25005KT 9999 FEW030 BKN050 BKN100 09/04 Q1017
Conditions at: BIEG (EGILSSTADIR , IS) observed 1400 UTC 17 April 2019
Temperature: 9.0°C (48°F)
Dewpoint: 4.0°C (39°F) [RH = 71%]
Pressure (altimeter): 30.03 inches Hg (1017.0 mb)
Winds: from the WSW (250 degrees) at 6 MPH (5 knots; 2.6 m/s)
Visibility: 6 or more miles (10+ km)
Ceiling: 5000 feet AGL
Clouds: few clouds at 3000 feet AGL
broken clouds at 5000 feet AGL
broken clouds at 10000 feet AGL
Weather: no significant weather observed at this time

METAR text: BIEG 171300Z 22011KT 9999 FEW033 SCT052 BKN100 10/04 Q1017
Conditions at: BIEG (EGILSSTADIR , IS) observed 1300 UTC 17 April 2019
Temperature: 10.0°C (50°F)
Dewpoint: 4.0°C (39°F) [RH = 66%]
Pressure (altimeter): 30.03 inches Hg (1017.0 mb)
Winds: from the SW (220 degrees) at 13 MPH (11 knots; 5.7 m/s)
Visibility: 6 or more miles (10+ km)
Ceiling: 10000 feet AGL
Clouds: few clouds at 3300 feet AGL
scattered clouds at 5200 feet AGL
broken clouds at 10000 feet AGL
Weather: no significant weather observed at this time

METAR text: BIEG 171200Z 19010KT 9999 FEW025 SCT055 BKN110 10/04 Q1016
Conditions at: BIEG (EGILSSTADIR , IS) observed 1200 UTC 17 April 2019
Temperature: 10.0°C (50°F)
Dewpoint: 4.0°C (39°F) [RH = 66%]
Pressure (altimeter): 30.00 inches Hg (1016.0 mb)
Winds: from the S (190 degrees) at 12 MPH (10 knots; 5.1 m/s)
Visibility: 6 or more miles (10+ km)
Ceiling: 11000 feet AGL
Clouds: few clouds at 2500 feet AGL
scattered clouds at 5500 feet AGL
broken clouds at 11000 feet AGL
Weather: no significant weather observed at this time

METAR text: BIEG 171100Z 18016KT 9999 FEW025 SCT060 BKN130 10/04 Q1016 R04/CLRD//
Conditions at: BIEG (EGILSSTADIR , IS) observed 1100 UTC 17 April 2019
Temperature: 10.0°C (50°F)
Dewpoint: 4.0°C (39°F) [RH = 66%]
Pressure (altimeter): 30.00 inches Hg (1016.0 mb)
Winds: from the S (180 degrees) at 18 MPH (16 knots; 8.2 m/s)
Visibility: 6 or more miles (10+ km)
Ceiling: 13000 feet AGL
Clouds: few clouds at 2500 feet AGL
scattered clouds at 6000 feet AGL
broken clouds at 13000 feet AGL
Weather: no significant weather observed at this time

METAR text: BIEG 171000Z 17018KT 9999 FEW025 SCT050 BKN120 09/04 Q1016 R04/190095
Conditions at: BIEG (EGILSSTADIR , IS) observed 1000 UTC 17 April 2019
Temperature: 9.0°C (48°F)
Dewpoint: 4.0°C (39°F) [RH = 71%]
Pressure (altimeter): 30.00 inches Hg (1016.0 mb)
Winds: from the S (170 degrees) at 21 MPH (18 knots; 9.3 m/s)
Visibility: 6 or more miles (10+ km)
Ceiling: 12000 feet AGL
Clouds: few clouds at 2500 feet AGL
scattered clouds at 5000 feet AGL
broken clouds at 12000 feet AGL
Weather: no significant weather observed at this time

METAR text: BIEG 170900Z 16017KT 9999 FEW025 SCT045 BKN150 09/04 Q1016 R04/190095
Conditions at: BIEG (EGILSSTADIR , IS) observed 0900 UTC 17 April 2019
Temperature: 9.0°C (48°F)
Dewpoint: 4.0°C (39°F) [RH = 71%]
Pressure (altimeter): 30.00 inches Hg (1016.0 mb)
Winds: from the SSE (160 degrees) at 20 MPH (17 knots; 8.7 m/s)
Visibility: 6 or more miles (10+ km)
Ceiling: 15000 feet AGL
Clouds: few clouds at 2500 feet AGL
scattered clouds at 4500 feet AGL
broken clouds at 15000 feet AGL
Weather: no significant weather observed at this time

METAR text: BIEG 170800Z 18019KT 9999 FEW030 08/04 Q1016 R04/190095
Conditions at: BIEG (EGILSSTADIR , IS) observed 0800 UTC 17 April 2019
Temperature: 8.0°C (46°F)
Dewpoint: 4.0°C (39°F) [RH = 76%]
Pressure (altimeter): 30.00 inches Hg (1016.0 mb)
Winds: from the S (180 degrees) at 22 MPH (19 knots; 9.8 m/s)
Visibility: 6 or more miles (10+ km)
Ceiling: at least 12,000 feet AGL
Clouds: few clouds at 3000 feet AGL
Weather: no significant weather observed at this time

Forecast for: BIEG (EGILSSTADIR , IS)
Text: TAF BIEG 181602Z 1818/1918 21018KT 9999 SCT035 BKN050 TX13/1818Z TN07/1906Z
Forecast period: 1800 UTC 18 April 2019 to 1800 UTC 19 April 2019
Forecast type: FROM: standard forecast or significant change
Winds: from the SSW (210 degrees) at 21 MPH (18 knots; 9.3 m/s)
Visibility: 6 or more miles 10+ km)
Ceiling: 5000 feet AGL
Clouds: scattered clouds at 3500 feet AGL
broken clouds at 5000 feet AGL
Weather: no significant weather forecast for this period